sensor_id;sensor_type;location;lat;lon;timestamp;P1;durP1;ratioP1;P2;durP2;ratioP2
42768;SDS011;28423;60.010;30.406;2022-07-10T00:00:14;13.65;;;9.70;;
42768;SDS011;28423;60.010;30.406;2022-07-10T00:02:43;15.65;;;9.77;;
42768;SDS011;28423;60.010;30.406;2022-07-10T00:05:10;12.68;;;8.93;;
42768;SDS011;28423;60.010;30.406;2022-07-10T00:07:36;16.35;;;10.30;;
42768;SDS011;28423;60.010;30.406;2022-07-10T00:10:02;19.20;;;10.65;;
42768;SDS011;28423;60.010;30.406;2022-07-10T00:12:28;16.50;;;10.00;;
42768;SDS011;28423;60.010;30.406;2022-07-10T00:14:54;15.82;;;11.02;;
42768;SDS011;28423;60.010;30.406;2022-07-10T00:17:19;15.90;;;10.50;;
42768;SDS011;28423;60.010;30.406;2022-07-10T00:19:45;16.45;;;11.43;;
42768;SDS011;28423;60.010;30.406;2022-07-10T00:22:11;14.95;;;10.20;;
42768;SDS011;28423;60.010;30.406;2022-07-10T00:24:36;15.50;;;10.25;;
42768;SDS011;28423;60.010;30.406;2022-07-10T00:27:02;13.73;;;9.93;;
42768;SDS011;28423;60.010;30.406;2022-07-10T00:29:28;17.80;;;9.30;;
42768;SDS011;28423;60.010;30.406;2022-07-10T00:31:54;12.52;;;9.40;;
42768;SDS011;28423;60.010;30.406;2022-07-10T00:34:19;15.45;;;10.60;;
42768;SDS011;28423;60.010;30.406;2022-07-10T00:36:45;12.82;;;11.02;;
42768;SDS011;28423;60.010;30.406;2022-07-10T00:39:11;14.88;;;12.13;;
42768;SDS011;28423;60.010;30.406;2022-07-10T00:41:36;18.02;;;12.30;;
42768;SDS011;28423;60.010;30.406;2022-07-10T00:44:02;20.42;;;13.55;;
42768;SDS011;28423;60.010;30.406;2022-07-10T00:46:29;19.35;;;14.73;;
42768;SDS011;28423;60.010;30.406;2022-07-10T00:48:55;23.08;;;13.93;;
42768;SDS011;28423;60.010;30.406;2022-07-10T00:51:24;17.88;;;14.30;;
42768;SDS011;28423;60.010;30.406;2022-07-10T00:53:51;21.17;;;15.15;;
42768;SDS011;28423;60.010;30.406;2022-07-10T00:56:18;18.05;;;13.88;;
42768;SDS011;28423;60.010;30.406;2022-07-10T00:58:45;19.90;;;14.13;;
42768;SDS011;28423;60.010;30.406;2022-07-10T01:01:11;19.52;;;14.25;;
42768;SDS011;28423;60.010;30.406;2022-07-10T01:03:37;17.13;;;13.15;;
42768;SDS011;28423;60.010;30.406;2022-07-10T01:06:03;17.77;;;13.55;;
42768;SDS011;28423;60.010;30.406;2022-07-10T01:08:29;17.40;;;12.73;;
42768;SDS011;28423;60.010;30.406;2022-07-10T01:10:54;16.90;;;12.50;;
42768;SDS011;28423;60.010;30.406;2022-07-10T01:13:21;15.98;;;12.63;;
42768;SDS011;28423;60.010;30.406;2022-07-10T01:15:47;13.75;;;11.27;;
42768;SDS011;28423;60.010;30.406;2022-07-10T01:18:13;15.48;;;11.65;;
42768;SDS011;28423;60.010;30.406;2022-07-10T01:20:42;15.55;;;12.20;;
42768;SDS011;28423;60.010;30.406;2022-07-10T01:23:07;15.07;;;10.52;;
42768;SDS011;28423;60.010;30.406;2022-07-10T01:25:33;15.88;;;11.52;;
42768;SDS011;28423;60.010;30.406;2022-07-10T01:27:59;16.20;;;12.02;;
42768;SDS011;28423;60.010;30.406;2022-07-10T01:30:25;16.88;;;11.40;;
42768;SDS011;28423;60.010;30.406;2022-07-10T01:32:51;13.68;;;11.32;;
42768;SDS011;28423;60.010;30.406;2022-07-10T01:35:20;15.20;;;12.07;;
42768;SDS011;28423;60.010;30.406;2022-07-10T01:37:46;17.40;;;12.52;;
42768;SDS011;28423;60.010;30.406;2022-07-10T01:40:12;15.50;;;11.85;;
42768;SDS011;28423;60.010;30.406;2022-07-10T01:42:40;15.45;;;11.57;;
42768;SDS011;28423;60.010;30.406;2022-07-10T01:45:09;18.02;;;12.98;;
42768;SDS011;28423;60.010;30.406;2022-07-10T01:47:35;16.58;;;11.30;;
42768;SDS011;28423;60.010;30.406;2022-07-10T01:50:01;15.98;;;12.40;;
42768;SDS011;28423;60.010;30.406;2022-07-10T01:52:28;14.13;;;11.73;;
42768;SDS011;28423;60.010;30.406;2022-07-10T01:54:53;15.77;;;10.90;;
42768;SDS011;28423;60.010;30.406;2022-07-10T01:57:19;14.82;;;11.45;;
42768;SDS011;28423;60.010;30.406;2022-07-10T01:59:44;17.17;;;12.70;;
42768;SDS011;28423;60.010;30.406;2022-07-10T02:02:10;19.23;;;11.85;;
42768;SDS011;28423;60.010;30.406;2022-07-10T02:04:36;17.48;;;12.07;;
42768;SDS011;28423;60.010;30.406;2022-07-10T02:07:08;18.45;;;12.00;;
42768;SDS011;28423;60.010;30.406;2022-07-10T02:09:35;18.75;;;12.18;;
42768;SDS011;28423;60.010;30.406;2022-07-10T02:12:02;16.00;;;11.85;;
42768;SDS011;28423;60.010;30.406;2022-07-10T02:14:28;17.50;;;12.13;;
42768;SDS011;28423;60.010;30.406;2022-07-10T02:16:53;20.77;;;12.23;;
42768;SDS011;28423;60.010;30.406;2022-07-10T02:19:19;18.35;;;14.15;;
42768;SDS011;28423;60.010;30.406;2022-07-10T02:21:45;16.17;;;13.27;;
42768;SDS011;28423;60.010;30.406;2022-07-10T02:24:14;15.55;;;12.43;;
42768;SDS011;28423;60.010;30.406;2022-07-10T02:26:39;19.75;;;13.15;;
42768;SDS011;28423;60.010;30.406;2022-07-10T02:29:05;17.70;;;13.50;;
42768;SDS011;28423;60.010;30.406;2022-07-10T02:31:30;18.92;;;13.63;;
42768;SDS011;28423;60.010;30.406;2022-07-10T02:34:00;19.30;;;13.55;;
42768;SDS011;28423;60.010;30.406;2022-07-10T02:36:26;17.35;;;13.85;;
42768;SDS011;28423;60.010;30.406;2022-07-10T02:38:52;18.10;;;13.68;;
42768;SDS011;28423;60.010;30.406;2022-07-10T02:41:17;18.98;;;15.07;;
42768;SDS011;28423;60.010;30.406;2022-07-10T02:43:43;19.92;;;14.73;;
42768;SDS011;28423;60.010;30.406;2022-07-10T02:46:08;18.45;;;14.27;;
42768;SDS011;28423;60.010;30.406;2022-07-10T02:48:34;18.48;;;14.48;;
42768;SDS011;28423;60.010;30.406;2022-07-10T02:50:59;18.52;;;13.73;;
42768;SDS011;28423;60.010;30.406;2022-07-10T02:53:25;17.05;;;13.18;;
42768;SDS011;28423;60.010;30.406;2022-07-10T02:55:51;17.00;;;13.10;;
42768;SDS011;28423;60.010;30.406;2022-07-10T02:58:16;21.17;;;14.55;;
42768;SDS011;28423;60.010;30.406;2022-07-10T03:00:43;15.50;;;13.80;;
42768;SDS011;28423;60.010;30.406;2022-07-10T03:03:08;16.45;;;13.40;;
42768;SDS011;28423;60.010;30.406;2022-07-10T03:05:34;17.58;;;13.73;;
42768;SDS011;28423;60.010;30.406;2022-07-10T03:08:00;16.67;;;13.23;;
42768;SDS011;28423;60.010;30.406;2022-07-10T03:10:26;20.45;;;14.30;;
42768;SDS011;28423;60.010;30.406;2022-07-10T03:12:51;15.57;;;13.02;;
42768;SDS011;28423;60.010;30.406;2022-07-10T03:15:17;17.95;;;14.00;;
42768;SDS011;28423;60.010;30.406;2022-07-10T03:17:43;14.27;;;12.77;;
42768;SDS011;28423;60.010;30.406;2022-07-10T03:20:08;19.40;;;13.07;;
42768;SDS011;28423;60.010;30.406;2022-07-10T03:22:35;15.80;;;13.68;;
42768;SDS011;28423;60.010;30.406;2022-07-10T03:25:01;15.80;;;13.85;;
42768;SDS011;28423;60.010;30.406;2022-07-10T03:27:26;18.70;;;14.18;;
42768;SDS011;28423;60.010;30.406;2022-07-10T03:29:52;19.92;;;15.30;;
42768;SDS011;28423;60.010;30.406;2022-07-10T03:32:18;18.30;;;13.93;;
42768;SDS011;28423;60.010;30.406;2022-07-10T03:34:43;22.23;;;15.32;;
42768;SDS011;28423;60.010;30.406;2022-07-10T03:37:09;19.08;;;15.80;;
42768;SDS011;28423;60.010;30.406;2022-07-10T03:39:34;16.88;;;14.70;;
42768;SDS011;28423;60.010;30.406;2022-07-10T03:42:00;20.35;;;14.63;;
42768;SDS011;28423;60.010;30.406;2022-07-10T03:44:25;18.10;;;15.05;;
42768;SDS011;28423;60.010;30.406;2022-07-10T03:46:51;16.38;;;14.32;;
42768;SDS011;28423;60.010;30.406;2022-07-10T03:49:17;19.00;;;13.43;;
42768;SDS011;28423;60.010;30.406;2022-07-10T03:51:43;16.92;;;13.48;;
42768;SDS011;28423;60.010;30.406;2022-07-10T03:54:08;16.15;;;14.13;;
42768;SDS011;28423;60.010;30.406;2022-07-10T03:56:34;16.98;;;13.50;;
42768;SDS011;28423;60.010;30.406;2022-07-10T03:59:19;14.48;;;12.38;;
42768;SDS011;28423;60.010;30.406;2022-07-10T04:01:44;14.95;;;13.30;;
42768;SDS011;28423;60.010;30.406;2022-07-10T04:04:10;15.63;;;12.10;;
42768;SDS011;28423;60.010;30.406;2022-07-10T04:06:35;17.55;;;13.35;;
42768;SDS011;28423;60.010;30.406;2022-07-10T04:09:04;12.07;;;10.75;;
42768;SDS011;28423;60.010;30.406;2022-07-10T04:11:30;12.80;;;10.50;;
42768;SDS011;28423;60.010;30.406;2022-07-10T04:13:56;10.90;;;9.70;;
42768;SDS011;28423;60.010;30.406;2022-07-10T04:16:22;10.90;;;9.65;;
42768;SDS011;28423;60.010;30.406;2022-07-10T04:18:48;11.70;;;9.85;;
42768;SDS011;28423;60.010;30.406;2022-07-10T04:21:13;11.70;;;10.02;;
42768;SDS011;28423;60.010;30.406;2022-07-10T04:23:39;14.85;;;10.32;;
42768;SDS011;28423;60.010;30.406;2022-07-10T04:26:05;12.93;;;10.27;;
42768;SDS011;28423;60.010;30.406;2022-07-10T04:28:30;12.40;;;10.70;;
42768;SDS011;28423;60.010;30.406;2022-07-10T04:30:56;11.50;;;10.30;;
42768;SDS011;28423;60.010;30.406;2022-07-10T04:33:22;12.45;;;10.82;;
42768;SDS011;28423;60.010;30.406;2022-07-10T04:35:47;12.55;;;11.25;;
42768;SDS011;28423;60.010;30.406;2022-07-10T04:38:13;13.10;;;11.85;;
42768;SDS011;28423;60.010;30.406;2022-07-10T04:40:38;13.23;;;11.95;;
42768;SDS011;28423;60.010;30.406;2022-07-10T04:43:04;13.80;;;10.65;;
42768;SDS011;28423;60.010;30.406;2022-07-10T04:45:30;12.85;;;11.55;;
42768;SDS011;28423;60.010;30.406;2022-07-10T04:47:55;11.27;;;10.18;;
42768;SDS011;28423;60.010;30.406;2022-07-10T04:50:21;13.55;;;10.80;;
42768;SDS011;28423;60.010;30.406;2022-07-10T04:52:46;11.15;;;9.65;;
42768;SDS011;28423;60.010;30.406;2022-07-10T04:55:12;11.30;;;10.15;;
42768;SDS011;28423;60.010;30.406;2022-07-10T04:57:38;12.13;;;9.75;;
42768;SDS011;28423;60.010;30.406;2022-07-10T05:00:04;9.90;;;8.93;;
42768;SDS011;28423;60.010;30.406;2022-07-10T05:02:30;11.52;;;9.73;;
42768;SDS011;28423;60.010;30.406;2022-07-10T05:04:56;11.73;;;10.45;;
42768;SDS011;28423;60.010;30.406;2022-07-10T05:07:21;10.55;;;9.48;;
42768;SDS011;28423;60.010;30.406;2022-07-10T05:09:47;12.38;;;9.82;;
42768;SDS011;28423;60.010;30.406;2022-07-10T05:12:12;10.93;;;9.70;;
42768;SDS011;28423;60.010;30.406;2022-07-10T05:14:38;11.23;;;10.00;;
42768;SDS011;28423;60.010;30.406;2022-07-10T05:17:04;14.93;;;10.27;;
42768;SDS011;28423;60.010;30.406;2022-07-10T05:19:29;11.90;;;9.75;;
42768;SDS011;28423;60.010;30.406;2022-07-10T05:21:55;11.00;;;9.90;;
42768;SDS011;28423;60.010;30.406;2022-07-10T05:24:20;10.70;;;9.40;;
42768;SDS011;28423;60.010;30.406;2022-07-10T05:26:46;12.23;;;8.98;;
42768;SDS011;28423;60.010;30.406;2022-07-10T05:29:12;11.02;;;9.50;;
42768;SDS011;28423;60.010;30.406;2022-07-10T05:31:38;9.35;;;8.52;;
42768;SDS011;28423;60.010;30.406;2022-07-10T05:34:03;12.48;;;8.65;;
42768;SDS011;28423;60.010;30.406;2022-07-10T05:36:29;11.20;;;7.80;;
42768;SDS011;28423;60.010;30.406;2022-07-10T05:38:55;8.18;;;7.38;;
42768;SDS011;28423;60.010;30.406;2022-07-10T05:41:20;11.23;;;7.00;;
42768;SDS011;28423;60.010;30.406;2022-07-10T05:43:46;10.77;;;8.38;;
42768;SDS011;28423;60.010;30.406;2022-07-10T05:46:11;8.82;;;8.02;;
42768;SDS011;28423;60.010;30.406;2022-07-10T05:48:37;9.15;;;8.25;;
42768;SDS011;28423;60.010;30.406;2022-07-10T05:51:03;8.63;;;7.82;;
42768;SDS011;28423;60.010;30.406;2022-07-10T05:53:29;9.18;;;6.57;;
42768;SDS011;28423;60.010;30.406;2022-07-10T05:55:59;7.50;;;6.25;;
42768;SDS011;28423;60.010;30.406;2022-07-10T05:58:25;6.03;;;4.60;;
42768;SDS011;28423;60.010;30.406;2022-07-10T06:00:51;8.30;;;5.00;;
42768;SDS011;28423;60.010;30.406;2022-07-10T06:03:17;5.60;;;4.65;;
42768;SDS011;28423;60.010;30.406;2022-07-10T06:05:42;6.65;;;5.18;;
42768;SDS011;28423;60.010;30.406;2022-07-10T06:08:08;7.03;;;5.65;;
42768;SDS011;28423;60.010;30.406;2022-07-10T06:10:36;7.30;;;6.22;;
42768;SDS011;28423;60.010;30.406;2022-07-10T06:13:01;7.13;;;6.25;;
42768;SDS011;28423;60.010;30.406;2022-07-10T06:15:27;7.45;;;5.95;;
42768;SDS011;28423;60.010;30.406;2022-07-10T06:17:55;8.77;;;6.57;;
42768;SDS011;28423;60.010;30.406;2022-07-10T06:20:21;9.32;;;6.43;;
42768;SDS011;28423;60.010;30.406;2022-07-10T06:22:47;6.85;;;5.28;;
42768;SDS011;28423;60.010;30.406;2022-07-10T06:25:12;7.88;;;5.50;;
42768;SDS011;28423;60.010;30.406;2022-07-10T06:27:38;7.63;;;5.88;;
42768;SDS011;28423;60.010;30.406;2022-07-10T06:30:04;14.20;;;7.20;;
42768;SDS011;28423;60.010;30.406;2022-07-10T06:32:31;8.70;;;6.03;;
42768;SDS011;28423;60.010;30.406;2022-07-10T06:34:56;7.25;;;6.35;;
42768;SDS011;28423;60.010;30.406;2022-07-10T06:37:22;7.97;;;6.38;;
42768;SDS011;28423;60.010;30.406;2022-07-10T06:39:47;6.82;;;6.10;;
42768;SDS011;28423;60.010;30.406;2022-07-10T06:42:14;5.35;;;4.85;;
42768;SDS011;28423;60.010;30.406;2022-07-10T06:44:41;6.00;;;5.40;;
42768;SDS011;28423;60.010;30.406;2022-07-10T06:47:10;6.15;;;5.15;;
42768;SDS011;28423;60.010;30.406;2022-07-10T06:49:56;7.07;;;5.93;;
42768;SDS011;28423;60.010;30.406;2022-07-10T06:52:21;7.80;;;5.70;;
42768;SDS011;28423;60.010;30.406;2022-07-10T06:54:47;6.47;;;5.60;;
42768;SDS011;28423;60.010;30.406;2022-07-10T06:57:13;5.97;;;5.38;;
42768;SDS011;28423;60.010;30.406;2022-07-10T06:59:39;6.32;;;5.72;;
42768;SDS011;28423;60.010;30.406;2022-07-10T07:02:05;6.57;;;5.47;;
42768;SDS011;28423;60.010;30.406;2022-07-10T07:04:30;6.80;;;6.07;;
42768;SDS011;28423;60.010;30.406;2022-07-10T07:06:56;7.57;;;5.20;;
42768;SDS011;28423;60.010;30.406;2022-07-10T07:09:22;9.38;;;5.60;;
42768;SDS011;28423;60.010;30.406;2022-07-10T07:11:47;6.90;;;5.68;;
42768;SDS011;28423;60.010;30.406;2022-07-10T07:14:13;6.65;;;4.95;;
42768;SDS011;28423;60.010;30.406;2022-07-10T07:16:39;5.30;;;4.80;;
42768;SDS011;28423;60.010;30.406;2022-07-10T07:19:10;4.80;;;4.35;;
42768;SDS011;28423;60.010;30.406;2022-07-10T07:21:36;5.80;;;4.20;;
42768;SDS011;28423;60.010;30.406;2022-07-10T07:24:21;5.20;;;4.63;;
42768;SDS011;28423;60.010;30.406;2022-07-10T07:26:47;5.82;;;5.22;;
42768;SDS011;28423;60.010;30.406;2022-07-10T07:29:14;5.75;;;5.13;;
42768;SDS011;28423;60.010;30.406;2022-07-10T07:31:41;6.65;;;4.70;;
42768;SDS011;28423;60.010;30.406;2022-07-10T07:34:06;6.07;;;4.60;;
42768;SDS011;28423;60.010;30.406;2022-07-10T07:36:32;5.05;;;4.53;;
42768;SDS011;28423;60.010;30.406;2022-07-10T07:38:58;7.90;;;4.80;;
42768;SDS011;28423;60.010;30.406;2022-07-10T07:41:23;4.60;;;4.15;;
42768;SDS011;28423;60.010;30.406;2022-07-10T07:43:49;5.20;;;4.38;;
42768;SDS011;28423;60.010;30.406;2022-07-10T07:46:15;4.50;;;4.10;;
42768;SDS011;28423;60.010;30.406;2022-07-10T07:48:40;4.60;;;4.20;;
42768;SDS011;28423;60.010;30.406;2022-07-10T07:51:07;6.32;;;4.75;;
42768;SDS011;28423;60.010;30.406;2022-07-10T07:53:32;6.90;;;4.93;;
42768;SDS011;28423;60.010;30.406;2022-07-10T07:55:58;8.00;;;5.35;;
42768;SDS011;28423;60.010;30.406;2022-07-10T07:58:24;6.15;;;5.55;;
42768;SDS011;28423;60.010;30.406;2022-07-10T08:00:50;6.82;;;4.90;;
42768;SDS011;28423;60.010;30.406;2022-07-10T08:03:16;6.63;;;4.57;;
42768;SDS011;28423;60.010;30.406;2022-07-10T08:05:41;5.20;;;4.70;;
42768;SDS011;28423;60.010;30.406;2022-07-10T08:08:08;7.05;;;5.28;;
42768;SDS011;28423;60.010;30.406;2022-07-10T08:10:36;7.40;;;4.75;;
42768;SDS011;28423;60.010;30.406;2022-07-10T08:13:02;6.60;;;5.18;;
42768;SDS011;28423;60.010;30.406;2022-07-10T08:15:28;5.88;;;5.28;;
42768;SDS011;28423;60.010;30.406;2022-07-10T08:17:55;11.60;;;4.60;;
42768;SDS011;28423;60.010;30.406;2022-07-10T08:20:22;5.65;;;5.07;;
42768;SDS011;28423;60.010;30.406;2022-07-10T08:22:49;5.53;;;4.97;;
42768;SDS011;28423;60.010;30.406;2022-07-10T08:25:15;5.25;;;4.75;;
42768;SDS011;28423;60.010;30.406;2022-07-10T08:27:40;6.75;;;4.20;;
42768;SDS011;28423;60.010;30.406;2022-07-10T08:30:07;6.00;;;5.00;;
42768;SDS011;28423;60.010;30.406;2022-07-10T08:32:34;5.10;;;4.60;;
42768;SDS011;28423;60.010;30.406;2022-07-10T08:35:01;5.45;;;4.55;;
42768;SDS011;28423;60.010;30.406;2022-07-10T08:37:27;8.15;;;7.22;;
42768;SDS011;28423;60.010;30.406;2022-07-10T08:39:53;9.82;;;5.18;;
42768;SDS011;28423;60.010;30.406;2022-07-10T08:42:18;5.68;;;4.90;;
42768;SDS011;28423;60.010;30.406;2022-07-10T08:44:45;7.38;;;4.50;;
42768;SDS011;28423;60.010;30.406;2022-07-10T08:47:11;4.40;;;3.67;;
42768;SDS011;28423;60.010;30.406;2022-07-10T08:49:37;4.82;;;4.13;;
42768;SDS011;28423;60.010;30.406;2022-07-10T08:52:08;4.10;;;3.70;;
42768;SDS011;28423;60.010;30.406;2022-07-10T08:54:36;5.32;;;3.50;;
42768;SDS011;28423;60.010;30.406;2022-07-10T08:57:04;4.45;;;3.75;;
42768;SDS011;28423;60.010;30.406;2022-07-10T08:59:31;4.22;;;3.75;;
42768;SDS011;28423;60.010;30.406;2022-07-10T09:01:57;4.80;;;4.30;;
42768;SDS011;28423;60.010;30.406;2022-07-10T09:04:24;7.47;;;3.90;;
42768;SDS011;28423;60.010;30.406;2022-07-10T09:06:51;4.53;;;4.13;;
42768;SDS011;28423;60.010;30.406;2022-07-10T09:09:18;5.95;;;4.03;;
42768;SDS011;28423;60.010;30.406;2022-07-10T09:11:44;6.60;;;4.55;;
42768;SDS011;28423;60.010;30.406;2022-07-10T09:14:11;3.72;;;3.40;;
42768;SDS011;28423;60.010;30.406;2022-07-10T09:16:40;4.78;;;3.80;;
42768;SDS011;28423;60.010;30.406;2022-07-10T09:24:16;4.78;;;3.72;;
42768;SDS011;28423;60.010;30.406;2022-07-10T09:27:03;5.00;;;3.70;;
42768;SDS011;28423;60.010;30.406;2022-07-10T09:29:29;5.60;;;3.72;;
42768;SDS011;28423;60.010;30.406;2022-07-10T09:31:56;7.75;;;4.00;;
42768;SDS011;28423;60.010;30.406;2022-07-10T09:34:36;4.13;;;3.70;;
42768;SDS011;28423;60.010;30.406;2022-07-10T09:42:26;4.47;;;3.72;;
42768;SDS011;28423;60.010;30.406;2022-07-10T09:44:54;3.65;;;3.35;;
42768;SDS011;28423;60.010;30.406;2022-07-10T09:47:38;5.60;;;4.03;;
42768;SDS011;28423;60.010;30.406;2022-07-10T09:50:04;5.03;;;4.53;;
42768;SDS011;28423;60.010;30.406;2022-07-10T09:52:46;3.92;;;3.58;;
42768;SDS011;28423;60.010;30.406;2022-07-10T09:55:12;7.28;;;6.22;;
42768;SDS011;28423;60.010;30.406;2022-07-10T09:57:39;6.38;;;5.78;;
42768;SDS011;28423;60.010;30.406;2022-07-10T10:00:06;4.32;;;3.92;;
42768;SDS011;28423;60.010;30.406;2022-07-10T10:02:37;4.75;;;3.53;;
42768;SDS011;28423;60.010;30.406;2022-07-10T10:05:03;4.95;;;4.22;;
42768;SDS011;28423;60.010;30.406;2022-07-10T10:07:30;7.60;;;3.60;;
42768;SDS011;28423;60.010;30.406;2022-07-10T10:09:57;5.43;;;3.83;;
42768;SDS011;28423;60.010;30.406;2022-07-10T10:12:30;3.97;;;3.58;;
42768;SDS011;28423;60.010;30.406;2022-07-10T10:14:57;7.32;;;4.07;;
42768;SDS011;28423;60.010;30.406;2022-07-10T10:17:24;4.13;;;3.72;;
42768;SDS011;28423;60.010;30.406;2022-07-10T10:19:51;4.63;;;4.20;;
42768;SDS011;28423;60.010;30.406;2022-07-10T10:22:35;5.65;;;4.10;;
42768;SDS011;28423;60.010;30.406;2022-07-10T10:25:02;5.10;;;4.15;;
42768;SDS011;28423;60.010;30.406;2022-07-10T10:27:30;5.45;;;4.00;;
42768;SDS011;28423;60.010;30.406;2022-07-10T10:29:56;5.10;;;3.95;;
42768;SDS011;28423;60.010;30.406;2022-07-10T10:32:22;5.47;;;4.30;;
42768;SDS011;28423;60.010;30.406;2022-07-10T10:34:48;5.35;;;4.20;;
42768;SDS011;28423;60.010;30.406;2022-07-10T10:39:53;4.75;;;4.30;;
42768;SDS011;28423;60.010;30.406;2022-07-10T10:48:05;4.88;;;4.35;;
42768;SDS011;28423;60.010;30.406;2022-07-10T10:50:40;4.75;;;4.03;;
42768;SDS011;28423;60.010;30.406;2022-07-10T10:53:17;5.20;;;4.72;;
42768;SDS011;28423;60.010;30.406;2022-07-10T10:58:36;6.45;;;4.45;;
42768;SDS011;28423;60.010;30.406;2022-07-10T11:01:25;9.02;;;4.60;;
42768;SDS011;28423;60.010;30.406;2022-07-10T11:09:33;5.10;;;4.60;;
42768;SDS011;28423;60.010;30.406;2022-07-10T11:14:32;5.28;;;4.78;;
42768;SDS011;28423;60.010;30.406;2022-07-10T11:17:00;10.38;;;5.55;;
42768;SDS011;28423;60.010;30.406;2022-07-10T11:19:27;7.28;;;5.50;;
42768;SDS011;28423;60.010;30.406;2022-07-10T11:30:45;5.05;;;4.55;;
42768;SDS011;28423;60.010;30.406;2022-07-10T11:33:12;5.63;;;5.13;;
42768;SDS011;28423;60.010;30.406;2022-07-10T11:35:39;8.23;;;5.75;;
42768;SDS011;28423;60.010;30.406;2022-07-10T11:38:05;6.35;;;5.65;;
42768;SDS011;28423;60.010;30.406;2022-07-10T11:40:35;6.90;;;5.78;;
42768;SDS011;28423;60.010;30.406;2022-07-10T11:43:01;7.63;;;5.68;;
42768;SDS011;28423;60.010;30.406;2022-07-10T11:45:32;6.22;;;5.20;;
42768;SDS011;28423;60.010;30.406;2022-07-10T11:48:02;5.18;;;4.65;;
42768;SDS011;28423;60.010;30.406;2022-07-10T11:50:33;7.15;;;5.00;;
42768;SDS011;28423;60.010;30.406;2022-07-10T11:53:00;5.30;;;4.53;;
42768;SDS011;28423;60.010;30.406;2022-07-10T11:55:26;5.20;;;4.70;;
42768;SDS011;28423;60.010;30.406;2022-07-10T11:57:54;4.63;;;4.22;;
42768;SDS011;28423;60.010;30.406;2022-07-10T12:02:52;4.85;;;3.47;;
42768;SDS011;28423;60.010;30.406;2022-07-10T12:05:35;3.85;;;3.45;;
42768;SDS011;28423;60.010;30.406;2022-07-10T12:08:03;5.15;;;4.18;;
42768;SDS011;28423;60.010;30.406;2022-07-10T12:10:29;5.40;;;4.32;;
42768;SDS011;28423;60.010;30.406;2022-07-10T12:13:03;7.43;;;4.35;;
42768;SDS011;28423;60.010;30.406;2022-07-10T12:15:34;6.93;;;4.43;;
42768;SDS011;28423;60.010;30.406;2022-07-10T12:20:43;9.02;;;4.30;;
42768;SDS011;28423;60.010;30.406;2022-07-10T12:23:16;6.55;;;4.15;;
42768;SDS011;28423;60.010;30.406;2022-07-10T12:25:43;5.35;;;4.85;;
42768;SDS011;28423;60.010;30.406;2022-07-10T12:28:10;9.20;;;4.63;;
42768;SDS011;28423;60.010;30.406;2022-07-10T12:30:43;5.82;;;4.55;;
42768;SDS011;28423;60.010;30.406;2022-07-10T12:35:55;5.90;;;3.78;;
42768;SDS011;28423;60.010;30.406;2022-07-10T12:38:24;7.40;;;4.30;;
42768;SDS011;28423;60.010;30.406;2022-07-10T12:40:51;7.32;;;4.55;;
42768;SDS011;28423;60.010;30.406;2022-07-10T12:43:34;5.18;;;4.68;;
42768;SDS011;28423;60.010;30.406;2022-07-10T12:46:16;5.18;;;4.43;;
42768;SDS011;28423;60.010;30.406;2022-07-10T12:49:00;5.68;;;4.43;;
42768;SDS011;28423;60.010;30.406;2022-07-10T12:51:27;4.72;;;3.55;;
42768;SDS011;28423;60.010;30.406;2022-07-10T12:56:59;4.80;;;4.05;;
42768;SDS011;28423;60.010;30.406;2022-07-10T12:59:26;4.45;;;3.50;;
42768;SDS011;28423;60.010;30.406;2022-07-10T13:01:52;3.95;;;3.25;;
42768;SDS011;28423;60.010;30.406;2022-07-10T13:04:24;5.43;;;3.42;;
42768;SDS011;28423;60.010;30.406;2022-07-10T13:06:53;3.30;;;3.00;;
42768;SDS011;28423;60.010;30.406;2022-07-10T13:11:47;5.10;;;3.25;;
42768;SDS011;28423;60.010;30.406;2022-07-10T13:14:13;6.07;;;3.63;;
42768;SDS011;28423;60.010;30.406;2022-07-10T13:16:39;4.30;;;3.33;;
42768;SDS011;28423;60.010;30.406;2022-07-10T13:19:05;4.32;;;3.60;;
42768;SDS011;28423;60.010;30.406;2022-07-10T13:21:30;5.15;;;4.00;;
42768;SDS011;28423;60.010;30.406;2022-07-10T13:23:56;4.55;;;3.45;;
42768;SDS011;28423;60.010;30.406;2022-07-10T13:26:22;5.10;;;4.15;;
42768;SDS011;28423;60.010;30.406;2022-07-10T13:28:47;7.85;;;4.50;;
42768;SDS011;28423;60.010;30.406;2022-07-10T13:31:13;7.78;;;4.05;;
42768;SDS011;28423;60.010;30.406;2022-07-10T13:33:39;4.70;;;4.28;;
42768;SDS011;28423;60.010;30.406;2022-07-10T13:36:04;6.13;;;4.78;;
42768;SDS011;28423;60.010;30.406;2022-07-10T13:38:30;6.65;;;4.50;;
42768;SDS011;28423;60.010;30.406;2022-07-10T13:40:57;6.40;;;4.72;;
42768;SDS011;28423;60.010;30.406;2022-07-10T13:43:22;6.70;;;5.25;;
42768;SDS011;28423;60.010;30.406;2022-07-10T13:45:56;8.20;;;5.82;;
42768;SDS011;28423;60.010;30.406;2022-07-10T13:48:22;9.32;;;5.45;;
42768;SDS011;28423;60.010;30.406;2022-07-10T13:50:48;8.88;;;5.30;;
42768;SDS011;28423;60.010;30.406;2022-07-10T13:53:15;7.35;;;5.63;;
42768;SDS011;28423;60.010;30.406;2022-07-10T13:55:41;7.63;;;5.88;;
42768;SDS011;28423;60.010;30.406;2022-07-10T13:58:08;11.43;;;7.20;;
42768;SDS011;28423;60.010;30.406;2022-07-10T14:00:34;9.23;;;5.70;;
42768;SDS011;28423;60.010;30.406;2022-07-10T14:03:00;6.85;;;5.60;;
42768;SDS011;28423;60.010;30.406;2022-07-10T14:05:25;7.80;;;6.43;;
42768;SDS011;28423;60.010;30.406;2022-07-10T14:07:51;8.95;;;5.90;;
42768;SDS011;28423;60.010;30.406;2022-07-10T14:10:17;8.20;;;5.80;;
42768;SDS011;28423;60.010;30.406;2022-07-10T14:12:42;5.93;;;5.32;;
42768;SDS011;28423;60.010;30.406;2022-07-10T14:15:08;6.90;;;5.10;;
42768;SDS011;28423;60.010;30.406;2022-07-10T14:17:35;5.80;;;5.20;;
42768;SDS011;28423;60.010;30.406;2022-07-10T14:20:00;4.32;;;3.92;;
42768;SDS011;28423;60.010;30.406;2022-07-10T14:22:26;4.93;;;3.42;;
42768;SDS011;28423;60.010;30.406;2022-07-10T14:24:51;4.95;;;3.15;;
42768;SDS011;28423;60.010;30.406;2022-07-10T14:27:19;4.72;;;3.95;;
42768;SDS011;28423;60.010;30.406;2022-07-10T14:29:45;6.45;;;4.30;;
42768;SDS011;28423;60.010;30.406;2022-07-10T14:32:10;3.83;;;2.40;;
42768;SDS011;28423;60.010;30.406;2022-07-10T14:34:39;5.50;;;3.35;;
42768;SDS011;28423;60.010;30.406;2022-07-10T14:37:04;3.38;;;2.28;;
42768;SDS011;28423;60.010;30.406;2022-07-10T14:39:30;3.83;;;2.60;;
42768;SDS011;28423;60.010;30.406;2022-07-10T14:41:55;3.20;;;2.65;;
42768;SDS011;28423;60.010;30.406;2022-07-10T14:44:21;5.07;;;2.78;;
42768;SDS011;28423;60.010;30.406;2022-07-10T14:46:47;5.47;;;2.80;;
42768;SDS011;28423;60.010;30.406;2022-07-10T14:49:12;5.60;;;3.70;;
42768;SDS011;28423;60.010;30.406;2022-07-10T14:51:38;4.45;;;2.83;;
42768;SDS011;28423;60.010;30.406;2022-07-10T14:54:04;4.22;;;3.33;;
42768;SDS011;28423;60.010;30.406;2022-07-10T14:56:30;5.93;;;2.85;;
42768;SDS011;28423;60.010;30.406;2022-07-10T14:58:58;4.57;;;2.90;;
42768;SDS011;28423;60.010;30.406;2022-07-10T15:01:23;4.38;;;3.28;;
42768;SDS011;28423;60.010;30.406;2022-07-10T15:03:49;5.95;;;2.80;;
42768;SDS011;28423;60.010;30.406;2022-07-10T15:06:15;5.70;;;3.20;;
42768;SDS011;28423;60.010;30.406;2022-07-10T15:08:40;5.13;;;3.17;;
42768;SDS011;28423;60.010;30.406;2022-07-10T15:11:06;4.97;;;3.38;;
42768;SDS011;28423;60.010;30.406;2022-07-10T15:13:32;5.47;;;3.30;;
42768;SDS011;28423;60.010;30.406;2022-07-10T15:15:58;5.38;;;3.92;;